createdAt,value
2023-02-11T00:00:15.709Z,67
2023-02-11T00:05:15.662Z,67
2023-02-11T00:10:15.766Z,67
2023-02-11T00:15:15.675Z,68
2023-02-11T00:20:15.802Z,68
2023-02-11T00:25:15.821Z,68
2023-02-11T00:30:15.728Z,68
2023-02-11T00:35:15.828Z,69
2023-02-11T00:40:15.696Z,68
2023-02-11T00:45:15.742Z,69
2023-02-11T00:50:15.716Z,69
2023-02-11T00:55:15.823Z,69
2023-02-11T01:00:15.704Z,69
2023-02-11T01:05:16.020Z,70
2023-02-11T01:10:15.997Z,70
2023-02-11T01:15:15.817Z,70
2023-02-11T01:20:15.967Z,70
2023-02-11T01:25:15.781Z,70
2023-02-11T01:30:15.823Z,71
2023-02-11T01:35:15.885Z,71
2023-02-11T01:40:15.884Z,71
2023-02-11T01:45:15.854Z,71
2023-02-11T01:50:15.947Z,71
2023-02-11T01:55:15.830Z,71
2023-02-11T02:00:16.067Z,71
2023-02-11T02:05:15.963Z,71
2023-02-11T02:10:15.918Z,71
2023-02-11T02:15:15.922Z,71
2023-02-11T02:20:16.081Z,71
2023-02-11T02:25:16.006Z,71
2023-02-11T02:30:16.066Z,72
2023-02-11T02:35:16.068Z,72
2023-02-11T02:40:15.997Z,72
2023-02-11T02:45:16.085Z,72
2023-02-11T02:50:16.076Z,72
2023-02-11T02:55:15.992Z,72
2023-02-11T03:00:16.004Z,72
2023-02-11T03:05:16.056Z,72
2023-02-11T03:10:16.189Z,72
2023-02-11T03:15:16.055Z,72
2023-02-11T03:20:16.131Z,72
2023-02-11T03:25:16.073Z,72
2023-02-11T03:30:16.069Z,72
2023-02-11T03:35:16.559Z,72
2023-02-11T03:40:16.192Z,72
2023-02-11T03:45:16.088Z,72
2023-02-11T03:50:16.100Z,72
2023-02-11T03:55:16.065Z,72
2023-02-11T04:00:16.095Z,72
2023-02-11T04:05:16.138Z,73
2023-02-11T04:10:16.296Z,72
2023-02-11T04:15:16.095Z,72
2023-02-11T04:20:16.171Z,72
2023-02-11T04:25:16.233Z,73
2023-02-11T04:30:16.236Z,72
2023-02-11T04:35:16.228Z,73
2023-02-11T04:40:16.356Z,73
2023-02-11T04:45:16.396Z,72
2023-02-11T04:50:16.310Z,72
2023-02-11T04:55:16.237Z,72
2023-02-11T05:00:17.336Z,72
2023-02-11T05:05:17.316Z,72
2023-02-11T05:10:17.228Z,71
2023-02-11T05:15:17.414Z,72
2023-02-11T05:20:17.317Z,71
2023-02-11T05:25:17.295Z,72
2023-02-11T05:30:17.290Z,71
2023-02-11T05:35:17.330Z,71
2023-02-11T05:40:17.364Z,71
2023-02-11T05:45:17.520Z,71
2023-02-11T05:50:17.465Z,71
2023-02-11T05:55:17.369Z,71
2023-02-11T06:00:15.507Z,71
2023-02-11T06:05:15.650Z,71
2023-02-11T06:10:15.509Z,71
2023-02-11T06:15:15.418Z,70
2023-02-11T06:20:15.546Z,70
2023-02-11T06:25:15.516Z,70
2023-02-11T06:30:15.522Z,70
2023-02-11T06:35:15.593Z,70
2023-02-11T06:40:15.497Z,70
2023-02-11T06:45:15.576Z,70
2023-02-11T06:50:15.530Z,70
2023-02-11T06:55:15.634Z,70
2023-02-11T07:00:15.772Z,71
2023-02-11T07:05:15.520Z,70
2023-02-11T07:10:15.513Z,70
2023-02-11T07:15:15.573Z,70
2023-02-11T07:20:15.603Z,70
2023-02-11T07:25:15.740Z,70
2023-02-11T07:30:15.639Z,71
2023-02-11T07:35:15.622Z,71
2023-02-11T07:40:15.608Z,70
2023-02-11T07:45:16.024Z,69
2023-02-11T07:50:15.777Z,69
2023-02-11T07:55:15.548Z,68
2023-02-11T08:00:15.629Z,68
2023-02-11T08:05:15.991Z,68
2023-02-11T08:10:15.930Z,67
2023-02-11T08:15:15.685Z,64
2023-02-11T08:20:15.700Z,64
2023-02-11T08:25:15.958Z,65
2023-02-11T08:30:15.677Z,61
2023-02-11T08:35:15.853Z,63
2023-02-11T08:40:15.869Z,59
2023-02-11T08:45:15.715Z,60
2023-02-11T08:50:15.769Z,58
2023-02-11T08:55:15.985Z,57
2023-02-11T09:00:15.744Z,56
2023-02-11T09:05:15.814Z,55
2023-02-11T09:10:15.836Z,56
2023-02-11T09:15:15.795Z,56
2023-02-11T09:20:16.174Z,54
2023-02-11T09:25:15.935Z,56
2023-02-11T09:30:15.829Z,56
2023-02-11T09:35:15.852Z,54
2023-02-11T09:40:15.805Z,55
2023-02-11T09:45:15.964Z,55
2023-02-11T09:50:15.920Z,53
2023-02-11T09:55:15.819Z,56
2023-02-11T10:00:15.950Z,56
2023-02-11T10:05:15.940Z,54
2023-02-11T10:10:15.850Z,56
2023-02-11T10:15:16.057Z,56
2023-02-11T10:20:17.125Z,57
2023-02-11T10:25:15.940Z,59
2023-02-11T10:30:16.096Z,56
2023-02-11T10:35:16.086Z,58
2023-02-11T10:40:15.961Z,59
2023-02-11T10:45:16.112Z,58
2023-02-11T10:50:16.105Z,58
2023-02-11T10:55:15.997Z,61
2023-02-11T11:00:16.090Z,59
2023-02-11T11:05:16.067Z,58
2023-02-11T11:10:16.187Z,59
2023-02-11T11:15:16.082Z,59
2023-02-11T11:20:16.122Z,60
2023-02-11T11:25:16.222Z,61
2023-02-11T11:30:16.075Z,62
2023-02-11T11:35:16.143Z,61
2023-02-11T11:40:16.196Z,59
2023-02-11T11:45:16.090Z,61
2023-02-11T11:50:16.251Z,62
2023-02-11T11:55:16.208Z,61
2023-02-11T12:00:16.221Z,60
2023-02-11T12:05:16.131Z,61
2023-02-11T12:10:16.234Z,61
2023-02-11T12:15:16.187Z,59
2023-02-11T12:20:16.227Z,60
2023-02-11T12:25:16.209Z,61
2023-02-11T12:30:16.170Z,60
2023-02-11T12:35:16.281Z,59
2023-02-11T12:40:16.177Z,60
2023-02-11T12:45:16.313Z,60
2023-02-11T12:50:16.248Z,61
2023-02-11T12:55:16.344Z,60
2023-02-11T13:00:16.293Z,60
2023-02-11T13:05:16.244Z,60
2023-02-11T13:10:16.354Z,61
2023-02-11T13:15:16.359Z,60
2023-02-11T13:20:16.297Z,61
2023-02-11T13:25:16.320Z,61
2023-02-11T13:30:16.397Z,61
2023-02-11T13:35:16.375Z,60
2023-02-11T13:40:16.407Z,59
2023-02-11T13:45:16.477Z,61
2023-02-11T13:50:16.353Z,62
2023-02-11T13:55:16.301Z,62
2023-02-11T14:00:16.413Z,62
2023-02-11T14:05:16.367Z,63
2023-02-11T14:10:16.407Z,62
2023-02-11T14:15:16.460Z,62
2023-02-11T14:20:16.502Z,61
2023-02-11T14:25:16.765Z,60
2023-02-11T14:30:16.451Z,61
2023-02-11T14:35:16.477Z,63
2023-02-11T14:40:16.523Z,62
2023-02-11T14:45:16.512Z,62
2023-02-11T14:50:16.570Z,62
2023-02-11T14:55:17.903Z,63
2023-02-11T15:00:16.630Z,60
2023-02-11T15:05:16.692Z,58
2023-02-11T15:10:17.059Z,59
2023-02-11T15:15:16.580Z,58
2023-02-11T15:20:16.601Z,57
2023-02-11T15:25:16.714Z,58
2023-02-11T15:30:16.555Z,56
2023-02-11T15:35:16.658Z,59
2023-02-11T15:40:16.958Z,57
2023-02-11T15:45:16.787Z,55
2023-02-11T15:50:16.689Z,55
2023-02-11T15:55:16.624Z,54
2023-02-11T16:00:16.788Z,53
2023-02-11T16:05:16.728Z,54
2023-02-11T16:10:16.744Z,53
2023-02-11T16:15:16.810Z,55
2023-02-11T16:20:16.682Z,53
2023-02-11T16:25:18.964Z,55
2023-02-11T16:30:16.870Z,53
2023-02-11T16:35:16.677Z,55
2023-02-11T16:40:16.726Z,54
2023-02-11T16:45:16.810Z,54
2023-02-11T16:50:16.847Z,55
2023-02-11T16:55:16.837Z,49
2023-02-11T17:00:16.809Z,52
2023-02-11T17:05:16.875Z,50
2023-02-11T17:10:16.923Z,49
2023-02-11T17:15:16.805Z,50
2023-02-11T17:20:16.865Z,49
2023-02-11T17:25:16.908Z,51
2023-02-11T17:30:16.800Z,47
2023-02-11T17:35:16.892Z,47
2023-02-11T17:40:16.891Z,50
2023-02-11T17:45:16.810Z,50
2023-02-11T17:50:17.048Z,47
2023-02-11T17:55:17.157Z,47
2023-02-11T18:00:17.052Z,46
2023-02-11T18:05:17.010Z,47
2023-02-11T18:10:17.081Z,48
2023-02-11T18:15:16.924Z,45
2023-02-11T18:20:17.026Z,47
2023-02-11T18:25:17.029Z,44
2023-02-11T18:30:17.348Z,44
2023-02-11T18:35:17.056Z,45
2023-02-11T18:40:17.001Z,44
2023-02-11T18:45:17.060Z,45
2023-02-11T18:50:17.022Z,43
2023-02-11T18:55:17.150Z,42
2023-02-11T19:00:17.065Z,44
2023-02-11T19:05:17.057Z,45
2023-02-11T19:10:17.137Z,42
2023-02-11T19:15:17.141Z,43
2023-02-11T19:20:17.163Z,46
2023-02-11T19:25:17.273Z,43
2023-02-11T19:30:17.146Z,41
2023-02-11T19:35:17.181Z,42
2023-02-11T19:40:17.269Z,41
2023-02-11T19:45:17.182Z,39
2023-02-11T19:50:17.184Z,43
2023-02-11T19:55:17.142Z,42
2023-02-11T20:00:17.198Z,41
2023-02-11T20:05:17.181Z,41
2023-02-11T20:10:17.535Z,40
2023-02-11T20:15:17.319Z,42
2023-02-11T20:20:17.259Z,44
2023-02-11T20:25:17.323Z,40
2023-02-11T20:30:17.252Z,43
2023-02-11T20:35:17.348Z,41
2023-02-11T20:40:17.245Z,39
2023-02-11T20:45:17.356Z,41
2023-02-11T20:50:17.367Z,41
2023-02-11T20:55:17.274Z,40
2023-02-11T21:00:17.340Z,39
2023-02-11T21:05:17.433Z,39
2023-02-11T21:10:17.531Z,43
2023-02-11T21:15:17.417Z,42
2023-02-11T21:20:17.366Z,42
2023-02-11T21:25:17.388Z,40
2023-02-11T21:30:15.576Z,42
2023-02-11T21:35:15.468Z,42
2023-02-11T21:40:15.394Z,42
2023-02-11T21:45:15.397Z,42
2023-02-11T21:50:15.577Z,44
2023-02-11T21:55:15.841Z,43
2023-02-11T22:00:15.481Z,41
2023-02-11T22:05:15.504Z,44
2023-02-11T22:10:15.628Z,42
2023-02-11T22:15:15.442Z,45
2023-02-11T22:20:15.644Z,46
2023-02-11T22:25:15.482Z,47
2023-02-11T22:30:15.505Z,51
2023-02-11T22:35:15.549Z,48
2023-02-11T22:40:15.451Z,52
2023-02-11T22:45:15.560Z,51
2023-02-11T22:50:15.536Z,51
2023-02-11T22:55:15.567Z,57
2023-02-11T23:00:15.609Z,58
2023-02-11T23:05:15.737Z,60
2023-02-11T23:10:15.534Z,58
2023-02-11T23:15:15.727Z,56
2023-02-11T23:20:15.642Z,57
2023-02-11T23:25:15.631Z,61
2023-02-11T23:30:15.594Z,62
2023-02-11T23:35:15.681Z,62
2023-02-11T23:40:15.657Z,62
2023-02-11T23:45:15.660Z,62
2023-02-11T23:50:15.689Z,62
2023-02-11T23:55:15.619Z,61
